sensor_id;sensor_type;location;lat;lon;timestamp;temperature;humidity
11848;DHT22;5983;49.966;8.052;2023-07-13T00:01:20;19.20;99.90
11848;DHT22;5983;49.966;8.052;2023-07-13T00:03:49;19.10;99.90
11848;DHT22;5983;49.966;8.052;2023-07-13T00:06:16;19.10;99.90
11848;DHT22;5983;49.966;8.052;2023-07-13T00:08:42;19.10;99.90
11848;DHT22;5983;49.966;8.052;2023-07-13T00:11:09;19.10;99.90
11848;DHT22;5983;49.966;8.052;2023-07-13T00:13:36;19.10;99.90
11848;DHT22;5983;49.966;8.052;2023-07-13T00:19:27;19.10;99.90
11848;DHT22;5983;49.966;8.052;2023-07-13T00:21:54;19.00;99.90
11848;DHT22;5983;49.966;8.052;2023-07-13T00:24:21;19.10;99.90
11848;DHT22;5983;49.966;8.052;2023-07-13T00:26:49;19.00;99.90
11848;DHT22;5983;49.966;8.052;2023-07-13T00:29:16;19.00;99.90
11848;DHT22;5983;49.966;8.052;2023-07-13T00:31:42;19.00;99.90
11848;DHT22;5983;49.966;8.052;2023-07-13T00:34:10;19.00;99.90
11848;DHT22;5983;49.966;8.052;2023-07-13T00:36:38;18.90;99.90
11848;DHT22;5983;49.966;8.052;2023-07-13T00:39:05;18.90;99.90
11848;DHT22;5983;49.966;8.052;2023-07-13T00:41:31;18.90;99.90
11848;DHT22;5983;49.966;8.052;2023-07-13T00:47:20;18.80;99.90
11848;DHT22;5983;49.966;8.052;2023-07-13T00:49:47;18.80;99.90
11848;DHT22;5983;49.966;8.052;2023-07-13T00:52:15;18.70;99.90
11848;DHT22;5983;49.966;8.052;2023-07-13T00:54:43;18.70;99.90
11848;DHT22;5983;49.966;8.052;2023-07-13T00:57:13;18.70;99.90
11848;DHT22;5983;49.966;8.052;2023-07-13T00:59:43;18.60;99.90
11848;DHT22;5983;49.966;8.052;2023-07-13T01:02:13;18.60;99.90
11848;DHT22;5983;49.966;8.052;2023-07-13T01:04:40;18.50;99.90
11848;DHT22;5983;49.966;8.052;2023-07-13T01:07:09;18.50;99.90
11848;DHT22;5983;49.966;8.052;2023-07-13T01:09:39;18.50;99.90
11848;DHT22;5983;49.966;8.052;2023-07-13T01:12:07;18.40;99.90
11848;DHT22;5983;49.966;8.052;2023-07-13T01:14:34;18.40;99.90
11848;DHT22;5983;49.966;8.052;2023-07-13T01:17:01;18.30;99.90
11848;DHT22;5983;49.966;8.052;2023-07-13T01:19:30;18.30;99.90
11848;DHT22;5983;49.966;8.052;2023-07-13T01:22:04;18.30;99.90
11848;DHT22;5983;49.966;8.052;2023-07-13T01:24:34;18.30;99.90
11848;DHT22;5983;49.966;8.052;2023-07-13T01:27:01;18.40;99.90
11848;DHT22;5983;49.966;8.052;2023-07-13T01:29:29;18.40;99.90
11848;DHT22;5983;49.966;8.052;2023-07-13T01:31:56;18.40;99.90
11848;DHT22;5983;49.966;8.052;2023-07-13T01:34:23;18.40;99.90
11848;DHT22;5983;49.966;8.052;2023-07-13T01:36:50;18.40;99.90
11848;DHT22;5983;49.966;8.052;2023-07-13T01:39:20;18.40;99.90
11848;DHT22;5983;49.966;8.052;2023-07-13T01:41:47;18.40;99.90
11848;DHT22;5983;49.966;8.052;2023-07-13T01:44:14;18.40;99.90
11848;DHT22;5983;49.966;8.052;2023-07-13T01:46:40;18.40;99.90
11848;DHT22;5983;49.966;8.052;2023-07-13T01:49:07;18.50;99.90
11848;DHT22;5983;49.966;8.052;2023-07-13T01:51:34;18.50;99.90
11848;DHT22;5983;49.966;8.052;2023-07-13T01:54:01;18.50;99.90
11848;DHT22;5983;49.966;8.052;2023-07-13T01:56:29;18.50;99.90
11848;DHT22;5983;49.966;8.052;2023-07-13T01:58:56;18.40;99.90
11848;DHT22;5983;49.966;8.052;2023-07-13T02:01:22;18.40;99.90
11848;DHT22;5983;49.966;8.052;2023-07-13T02:03:49;18.40;99.90
11848;DHT22;5983;49.966;8.052;2023-07-13T02:06:16;18.30;99.90
11848;DHT22;5983;49.966;8.052;2023-07-13T02:08:43;18.30;99.90
11848;DHT22;5983;49.966;8.052;2023-07-13T02:11:10;18.20;99.90
11848;DHT22;5983;49.966;8.052;2023-07-13T02:13:39;18.10;99.90
11848;DHT22;5983;49.966;8.052;2023-07-13T02:16:06;18.10;99.90
11848;DHT22;5983;49.966;8.052;2023-07-13T02:18:32;18.10;99.90
11848;DHT22;5983;49.966;8.052;2023-07-13T02:20:59;18.00;99.90
11848;DHT22;5983;49.966;8.052;2023-07-13T02:23:26;18.00;99.90
11848;DHT22;5983;49.966;8.052;2023-07-13T02:25:54;17.90;99.90
11848;DHT22;5983;49.966;8.052;2023-07-13T02:28:21;17.90;99.90
11848;DHT22;5983;49.966;8.052;2023-07-13T02:30:49;17.80;99.90
11848;DHT22;5983;49.966;8.052;2023-07-13T02:33:16;17.80;99.90
11848;DHT22;5983;49.966;8.052;2023-07-13T02:35:43;17.80;99.90
11848;DHT22;5983;49.966;8.052;2023-07-13T02:38:09;17.70;99.90
11848;DHT22;5983;49.966;8.052;2023-07-13T02:40:36;17.70;99.90
11848;DHT22;5983;49.966;8.052;2023-07-13T02:43:03;17.70;99.90
11848;DHT22;5983;49.966;8.052;2023-07-13T02:45:30;17.60;99.90
11848;DHT22;5983;49.966;8.052;2023-07-13T02:47:58;17.60;99.90
11848;DHT22;5983;49.966;8.052;2023-07-13T02:50:25;17.50;99.90
11848;DHT22;5983;49.966;8.052;2023-07-13T02:52:52;17.40;99.90
11848;DHT22;5983;49.966;8.052;2023-07-13T02:55:18;17.30;99.90
11848;DHT22;5983;49.966;8.052;2023-07-13T02:57:45;17.20;99.90
11848;DHT22;5983;49.966;8.052;2023-07-13T03:00:12;17.10;99.90
11848;DHT22;5983;49.966;8.052;2023-07-13T03:02:41;17.10;99.90
11848;DHT22;5983;49.966;8.052;2023-07-13T03:05:09;17.00;99.90
11848;DHT22;5983;49.966;8.052;2023-07-13T03:07:38;17.00;99.90
11848;DHT22;5983;49.966;8.052;2023-07-13T03:10:05;17.00;99.90
11848;DHT22;5983;49.966;8.052;2023-07-13T03:12:33;16.90;99.90
11848;DHT22;5983;49.966;8.052;2023-07-13T03:14:59;16.90;99.90
11848;DHT22;5983;49.966;8.052;2023-07-13T03:17:26;16.90;99.90
11848;DHT22;5983;49.966;8.052;2023-07-13T03:19:53;16.80;99.90
11848;DHT22;5983;49.966;8.052;2023-07-13T03:22:21;16.80;99.90
11848;DHT22;5983;49.966;8.052;2023-07-13T03:24:48;16.70;99.90
11848;DHT22;5983;49.966;8.052;2023-07-13T03:27:15;16.70;99.90
11848;DHT22;5983;49.966;8.052;2023-07-13T03:29:42;16.70;99.90
11848;DHT22;5983;49.966;8.052;2023-07-13T03:32:09;16.70;99.90
11848;DHT22;5983;49.966;8.052;2023-07-13T03:34:35;16.70;99.90
11848;DHT22;5983;49.966;8.052;2023-07-13T03:37:02;16.60;99.90
11848;DHT22;5983;49.966;8.052;2023-07-13T03:39:31;16.60;99.90
11848;DHT22;5983;49.966;8.052;2023-07-13T03:41:58;16.60;99.90
11848;DHT22;5983;49.966;8.052;2023-07-13T03:44:24;16.50;99.90
11848;DHT22;5983;49.966;8.052;2023-07-13T03:46:51;16.50;99.90
11848;DHT22;5983;49.966;8.052;2023-07-13T03:49:18;16.50;99.90
11848;DHT22;5983;49.966;8.052;2023-07-13T03:51:45;16.60;99.90
11848;DHT22;5983;49.966;8.052;2023-07-13T03:54:12;16.60;99.90
11848;DHT22;5983;49.966;8.052;2023-07-13T03:56:40;16.60;99.90
11848;DHT22;5983;49.966;8.052;2023-07-13T03:59:06;16.60;99.90
11848;DHT22;5983;49.966;8.052;2023-07-13T04:01:33;16.60;99.90
11848;DHT22;5983;49.966;8.052;2023-07-13T04:04:00;16.60;99.90
11848;DHT22;5983;49.966;8.052;2023-07-13T04:06:28;16.70;99.90
11848;DHT22;5983;49.966;8.052;2023-07-13T04:08:56;16.70;99.90
11848;DHT22;5983;49.966;8.052;2023-07-13T04:11:25;16.70;99.90
11848;DHT22;5983;49.966;8.052;2023-07-13T04:13:55;16.80;99.90
11848;DHT22;5983;49.966;8.052;2023-07-13T04:16:23;16.90;99.90
11848;DHT22;5983;49.966;8.052;2023-07-13T04:18:50;17.00;99.90
11848;DHT22;5983;49.966;8.052;2023-07-13T04:21:20;17.00;99.90
11848;DHT22;5983;49.966;8.052;2023-07-13T04:23:47;17.10;99.90
11848;DHT22;5983;49.966;8.052;2023-07-13T04:26:13;17.20;99.90
11848;DHT22;5983;49.966;8.052;2023-07-13T04:28:40;17.30;99.90
11848;DHT22;5983;49.966;8.052;2023-07-13T04:31:08;17.40;99.90
11848;DHT22;5983;49.966;8.052;2023-07-13T04:33:35;17.50;99.90
11848;DHT22;5983;49.966;8.052;2023-07-13T04:36:02;17.60;99.90
11848;DHT22;5983;49.966;8.052;2023-07-13T04:38:30;17.70;99.90
11848;DHT22;5983;49.966;8.052;2023-07-13T04:40:58;17.80;99.90
11848;DHT22;5983;49.966;8.052;2023-07-13T04:43:26;17.80;99.90
11848;DHT22;5983;49.966;8.052;2023-07-13T04:45:53;17.90;99.90
11848;DHT22;5983;49.966;8.052;2023-07-13T04:48:22;17.90;99.90
11848;DHT22;5983;49.966;8.052;2023-07-13T04:50:54;17.90;99.90
11848;DHT22;5983;49.966;8.052;2023-07-13T04:53:22;18.00;99.90
11848;DHT22;5983;49.966;8.052;2023-07-13T04:55:49;18.10;99.90
11848;DHT22;5983;49.966;8.052;2023-07-13T04:58:16;18.20;99.90
11848;DHT22;5983;49.966;8.052;2023-07-13T05:00:43;18.20;99.90
11848;DHT22;5983;49.966;8.052;2023-07-13T05:03:10;18.30;99.90
11848;DHT22;5983;49.966;8.052;2023-07-13T05:05:38;18.40;99.90
11848;DHT22;5983;49.966;8.052;2023-07-13T05:08:10;18.50;99.90
11848;DHT22;5983;49.966;8.052;2023-07-13T05:10:36;18.60;99.90
11848;DHT22;5983;49.966;8.052;2023-07-13T05:13:06;18.60;99.90
11848;DHT22;5983;49.966;8.052;2023-07-13T05:15:33;18.60;99.90
11848;DHT22;5983;49.966;8.052;2023-07-13T05:18:00;18.70;99.90
11848;DHT22;5983;49.966;8.052;2023-07-13T05:20:27;18.70;99.90
11848;DHT22;5983;49.966;8.052;2023-07-13T05:22:55;18.80;99.90
11848;DHT22;5983;49.966;8.052;2023-07-13T05:25:22;18.80;99.90
11848;DHT22;5983;49.966;8.052;2023-07-13T05:27:48;18.90;99.90
11848;DHT22;5983;49.966;8.052;2023-07-13T05:30:15;19.00;99.90
11848;DHT22;5983;49.966;8.052;2023-07-13T05:32:42;19.00;99.90
11848;DHT22;5983;49.966;8.052;2023-07-13T05:35:09;19.10;99.90
11848;DHT22;5983;49.966;8.052;2023-07-13T05:37:36;19.30;99.90
11848;DHT22;5983;49.966;8.052;2023-07-13T05:40:05;19.30;99.90
11848;DHT22;5983;49.966;8.052;2023-07-13T05:42:33;19.40;99.90
11848;DHT22;5983;49.966;8.052;2023-07-13T05:45:00;19.50;99.90
11848;DHT22;5983;49.966;8.052;2023-07-13T05:47:26;19.60;99.90
11848;DHT22;5983;49.966;8.052;2023-07-13T05:49:53;19.60;99.90
11848;DHT22;5983;49.966;8.052;2023-07-13T05:52:20;19.70;99.90
11848;DHT22;5983;49.966;8.052;2023-07-13T05:54:47;19.80;99.90
11848;DHT22;5983;49.966;8.052;2023-07-13T05:57:15;19.90;99.90
11848;DHT22;5983;49.966;8.052;2023-07-13T05:59:42;20.00;99.90
11848;DHT22;5983;49.966;8.052;2023-07-13T06:02:08;20.00;99.90
11848;DHT22;5983;49.966;8.052;2023-07-13T06:04:36;20.00;99.90
11848;DHT22;5983;49.966;8.052;2023-07-13T06:07:02;20.10;99.90
11848;DHT22;5983;49.966;8.052;2023-07-13T06:09:29;20.20;99.90
11848;DHT22;5983;49.966;8.052;2023-07-13T06:11:56;20.20;99.90
11848;DHT22;5983;49.966;8.052;2023-07-13T06:14:25;20.30;99.90
11848;DHT22;5983;49.966;8.052;2023-07-13T06:16:51;20.40;99.90
11848;DHT22;5983;49.966;8.052;2023-07-13T06:19:18;20.40;99.90
11848;DHT22;5983;49.966;8.052;2023-07-13T06:21:45;20.60;99.90
11848;DHT22;5983;49.966;8.052;2023-07-13T06:24:12;20.70;99.90
11848;DHT22;5983;49.966;8.052;2023-07-13T06:26:38;20.80;99.90
11848;DHT22;5983;49.966;8.052;2023-07-13T06:29:05;20.90;99.90
11848;DHT22;5983;49.966;8.052;2023-07-13T06:31:33;21.00;99.90
11848;DHT22;5983;49.966;8.052;2023-07-13T06:34:00;21.10;99.90
11848;DHT22;5983;49.966;8.052;2023-07-13T06:36:27;21.10;99.90
11848;DHT22;5983;49.966;8.052;2023-07-13T06:38:54;21.30;99.90
11848;DHT22;5983;49.966;8.052;2023-07-13T06:41:20;21.30;99.90
11848;DHT22;5983;49.966;8.052;2023-07-13T06:43:47;21.40;99.90
11848;DHT22;5983;49.966;8.052;2023-07-13T06:46:14;21.50;99.90
11848;DHT22;5983;49.966;8.052;2023-07-13T06:48:42;21.60;99.90
11848;DHT22;5983;49.966;8.052;2023-07-13T06:51:09;21.70;99.90
11848;DHT22;5983;49.966;8.052;2023-07-13T06:53:36;21.80;99.90
11848;DHT22;5983;49.966;8.052;2023-07-13T06:56:03;21.90;99.90
11848;DHT22;5983;49.966;8.052;2023-07-13T06:58:30;22.00;99.90
11848;DHT22;5983;49.966;8.052;2023-07-13T07:00:57;22.10;99.90
11848;DHT22;5983;49.966;8.052;2023-07-13T07:03:24;22.20;99.90
11848;DHT22;5983;49.966;8.052;2023-07-13T07:05:52;22.30;99.90
11848;DHT22;5983;49.966;8.052;2023-07-13T07:08:19;22.40;99.90
11848;DHT22;5983;49.966;8.052;2023-07-13T07:10:46;22.50;99.90
11848;DHT22;5983;49.966;8.052;2023-07-13T07:13:16;22.60;99.90
11848;DHT22;5983;49.966;8.052;2023-07-13T07:15:43;22.70;99.90
11848;DHT22;5983;49.966;8.052;2023-07-13T07:18:10;22.80;99.90
11848;DHT22;5983;49.966;8.052;2023-07-13T07:20:37;22.80;99.90
11848;DHT22;5983;49.966;8.052;2023-07-13T07:23:05;22.90;99.90
11848;DHT22;5983;49.966;8.052;2023-07-13T07:25:31;23.00;99.90
11848;DHT22;5983;49.966;8.052;2023-07-13T07:28:02;23.10;99.90
11848;DHT22;5983;49.966;8.052;2023-07-13T07:30:29;23.20;99.90
11848;DHT22;5983;49.966;8.052;2023-07-13T07:32:56;23.20;99.90
11848;DHT22;5983;49.966;8.052;2023-07-13T07:35:23;23.30;99.90
11848;DHT22;5983;49.966;8.052;2023-07-13T07:37:50;23.30;99.90
11848;DHT22;5983;49.966;8.052;2023-07-13T07:40:18;23.40;99.90
11848;DHT22;5983;49.966;8.052;2023-07-13T07:42:45;23.50;99.90
11848;DHT22;5983;49.966;8.052;2023-07-13T07:45:11;23.70;99.90
11848;DHT22;5983;49.966;8.052;2023-07-13T07:47:39;23.70;99.90
11848;DHT22;5983;49.966;8.052;2023-07-13T07:50:06;23.80;99.90
11848;DHT22;5983;49.966;8.052;2023-07-13T07:52:34;24.00;99.90
11848;DHT22;5983;49.966;8.052;2023-07-13T07:55:00;24.00;99.30
11848;DHT22;5983;49.966;8.052;2023-07-13T07:57:28;24.10;99.20
11848;DHT22;5983;49.966;8.052;2023-07-13T07:59:55;24.20;99.40
11848;DHT22;5983;49.966;8.052;2023-07-13T08:02:22;24.30;98.60
11848;DHT22;5983;49.966;8.052;2023-07-13T08:04:49;24.30;97.80
11848;DHT22;5983;49.966;8.052;2023-07-13T08:07:15;24.40;97.70
11848;DHT22;5983;49.966;8.052;2023-07-13T08:09:42;24.50;98.00
11848;DHT22;5983;49.966;8.052;2023-07-13T08:12:09;24.60;95.80
11848;DHT22;5983;49.966;8.052;2023-07-13T08:14:37;24.50;96.00
11848;DHT22;5983;49.966;8.052;2023-07-13T08:17:04;24.60;96.60
11848;DHT22;5983;49.966;8.052;2023-07-13T08:19:31;24.70;96.90
11848;DHT22;5983;49.966;8.052;2023-07-13T08:21:58;24.90;96.10
11848;DHT22;5983;49.966;8.052;2023-07-13T08:24:25;25.00;95.60
11848;DHT22;5983;49.966;8.052;2023-07-13T08:26:51;25.20;94.90
11848;DHT22;5983;49.966;8.052;2023-07-13T08:29:18;25.30;94.50
11848;DHT22;5983;49.966;8.052;2023-07-13T08:31:46;25.40;93.80
11848;DHT22;5983;49.966;8.052;2023-07-13T08:34:13;25.50;94.00
11848;DHT22;5983;49.966;8.052;2023-07-13T08:36:40;25.60;93.90
11848;DHT22;5983;49.966;8.052;2023-07-13T08:39:07;25.80;93.70
11848;DHT22;5983;49.966;8.052;2023-07-13T08:41:34;25.90;92.40
11848;DHT22;5983;49.966;8.052;2023-07-13T08:44:02;26.00;92.80
11848;DHT22;5983;49.966;8.052;2023-07-13T08:46:34;26.10;91.90
11848;DHT22;5983;49.966;8.052;2023-07-13T08:49:05;26.10;91.10
11848;DHT22;5983;49.966;8.052;2023-07-13T08:51:39;26.10;90.40
11848;DHT22;5983;49.966;8.052;2023-07-13T08:54:11;26.20;90.40
11848;DHT22;5983;49.966;8.052;2023-07-13T08:56:45;26.20;89.50
11848;DHT22;5983;49.966;8.052;2023-07-13T08:59:14;26.30;89.20
11848;DHT22;5983;49.966;8.052;2023-07-13T09:01:52;26.40;87.50
11848;DHT22;5983;49.966;8.052;2023-07-13T09:04:29;26.50;87.10
11848;DHT22;5983;49.966;8.052;2023-07-13T09:07:04;26.60;86.70
11848;DHT22;5983;49.966;8.052;2023-07-13T09:09:37;26.70;86.10
11848;DHT22;5983;49.966;8.052;2023-07-13T09:12:14;26.80;84.20
11848;DHT22;5983;49.966;8.052;2023-07-13T09:14:47;26.90;83.60
11848;DHT22;5983;49.966;8.052;2023-07-13T09:17:17;27.00;83.20
11848;DHT22;5983;49.966;8.052;2023-07-13T09:19:47;27.10;82.70
11848;DHT22;5983;49.966;8.052;2023-07-13T09:22:19;27.30;82.50
11848;DHT22;5983;49.966;8.052;2023-07-13T09:24:52;27.40;82.00
11848;DHT22;5983;49.966;8.052;2023-07-13T09:27:23;27.50;81.70
11848;DHT22;5983;49.966;8.052;2023-07-13T09:29:57;27.50;81.10
11848;DHT22;5983;49.966;8.052;2023-07-13T09:32:31;27.70;81.70
11848;DHT22;5983;49.966;8.052;2023-07-13T09:35:00;27.80;80.30
11848;DHT22;5983;49.966;8.052;2023-07-13T09:37:30;28.00;80.30
11848;DHT22;5983;49.966;8.052;2023-07-13T09:39:59;28.20;80.30
11848;DHT22;5983;49.966;8.052;2023-07-13T09:42:30;28.50;79.10
11848;DHT22;5983;49.966;8.052;2023-07-13T09:44:59;28.60;77.70
11848;DHT22;5983;49.966;8.052;2023-07-13T09:47:30;28.70;78.40
11848;DHT22;5983;49.966;8.052;2023-07-13T09:49:59;28.80;75.40
11848;DHT22;5983;49.966;8.052;2023-07-13T09:52:39;28.70;73.40
11848;DHT22;5983;49.966;8.052;2023-07-13T09:55:17;28.50;73.10
11848;DHT22;5983;49.966;8.052;2023-07-13T09:57:51;28.40;72.90
11848;DHT22;5983;49.966;8.052;2023-07-13T10:00:22;28.50;74.20
11848;DHT22;5983;49.966;8.052;2023-07-13T10:03:01;28.60;74.50
11848;DHT22;5983;49.966;8.052;2023-07-13T10:05:41;28.40;71.30
11848;DHT22;5983;49.966;8.052;2023-07-13T10:08:17;28.30;73.30
11848;DHT22;5983;49.966;8.052;2023-07-13T10:10:52;28.50;74.60
11848;DHT22;5983;49.966;8.052;2023-07-13T10:13:31;28.70;74.50
11848;DHT22;5983;49.966;8.052;2023-07-13T10:16:02;28.70;73.80
11848;DHT22;5983;49.966;8.052;2023-07-13T10:18:33;28.60;73.90
11848;DHT22;5983;49.966;8.052;2023-07-13T10:21:18;28.40;72.80
11848;DHT22;5983;49.966;8.052;2023-07-13T10:23:48;28.30;72.90
11848;DHT22;5983;49.966;8.052;2023-07-13T10:26:21;28.40;70.20
11848;DHT22;5983;49.966;8.052;2023-07-13T10:28:52;28.20;70.60
11848;DHT22;5983;49.966;8.052;2023-07-13T10:31:21;28.00;70.30
11848;DHT22;5983;49.966;8.052;2023-07-13T10:33:50;27.90;70.30
11848;DHT22;5983;49.966;8.052;2023-07-13T10:36:27;27.60;70.50
11848;DHT22;5983;49.966;8.052;2023-07-13T10:38:59;27.50;70.20
11848;DHT22;5983;49.966;8.052;2023-07-13T10:41:30;27.30;69.90
11848;DHT22;5983;49.966;8.052;2023-07-13T10:44:01;27.00;69.20
11848;DHT22;5983;49.966;8.052;2023-07-13T10:46:30;26.90;69.80
11848;DHT22;5983;49.966;8.052;2023-07-13T10:49:01;26.90;70.20
11848;DHT22;5983;49.966;8.052;2023-07-13T10:51:33;27.20;70.50
11848;DHT22;5983;49.966;8.052;2023-07-13T10:54:21;27.50;70.10
11848;DHT22;5983;49.966;8.052;2023-07-13T10:57:06;27.80;70.50
11848;DHT22;5983;49.966;8.052;2023-07-13T10:59:42;28.20;68.10
11848;DHT22;5983;49.966;8.052;2023-07-13T11:02:21;28.40;69.20
11848;DHT22;5983;49.966;8.052;2023-07-13T11:04:54;28.70;68.60
11848;DHT22;5983;49.966;8.052;2023-07-13T11:07:26;29.00;66.50
11848;DHT22;5983;49.966;8.052;2023-07-13T11:09:56;29.10;66.00
11848;DHT22;5983;49.966;8.052;2023-07-13T11:15:31;29.10;62.90
11848;DHT22;5983;49.966;8.052;2023-07-13T11:18:20;29.00;64.20
11848;DHT22;5983;49.966;8.052;2023-07-13T11:20:49;29.00;65.50
11848;DHT22;5983;49.966;8.052;2023-07-13T11:23:28;29.20;64.90
11848;DHT22;5983;49.966;8.052;2023-07-13T11:25:56;29.30;65.30
11848;DHT22;5983;49.966;8.052;2023-07-13T11:28:26;29.20;64.80
11848;DHT22;5983;49.966;8.052;2023-07-13T11:31:03;29.10;65.10
11848;DHT22;5983;49.966;8.052;2023-07-13T11:33:51;29.00;65.00
11848;DHT22;5983;49.966;8.052;2023-07-13T11:36:21;28.90;65.10
11848;DHT22;5983;49.966;8.052;2023-07-13T11:38:59;28.70;64.40
11848;DHT22;5983;49.966;8.052;2023-07-13T11:41:32;28.60;65.30
11848;DHT22;5983;49.966;8.052;2023-07-13T11:44:11;28.40;65.40
11848;DHT22;5983;49.966;8.052;2023-07-13T11:46:45;28.20;66.10
11848;DHT22;5983;49.966;8.052;2023-07-13T11:49:15;28.00;64.90
11848;DHT22;5983;49.966;8.052;2023-07-13T11:51:44;27.80;66.80
11848;DHT22;5983;49.966;8.052;2023-07-13T11:54:24;27.60;67.30
11848;DHT22;5983;49.966;8.052;2023-07-13T11:56:54;27.50;67.30
11848;DHT22;5983;49.966;8.052;2023-07-13T11:59:22;27.40;67.20
11848;DHT22;5983;49.966;8.052;2023-07-13T12:01:52;27.50;67.10
11848;DHT22;5983;49.966;8.052;2023-07-13T12:04:25;27.70;69.40
11848;DHT22;5983;49.966;8.052;2023-07-13T12:06:57;27.80;69.00
11848;DHT22;5983;49.966;8.052;2023-07-13T12:09:34;27.90;66.80
11848;DHT22;5983;49.966;8.052;2023-07-13T12:12:03;27.90;67.20
11848;DHT22;5983;49.966;8.052;2023-07-13T12:14:36;27.80;67.30
11848;DHT22;5983;49.966;8.052;2023-07-13T12:17:09;27.80;66.40
11848;DHT22;5983;49.966;8.052;2023-07-13T12:19:41;27.80;66.50
11848;DHT22;5983;49.966;8.052;2023-07-13T12:22:10;27.80;66.10
11848;DHT22;5983;49.966;8.052;2023-07-13T12:24:41;27.80;65.90
11848;DHT22;5983;49.966;8.052;2023-07-13T12:27:20;28.00;67.10
11848;DHT22;5983;49.966;8.052;2023-07-13T12:29:50;28.00;66.20
11848;DHT22;5983;49.966;8.052;2023-07-13T12:32:20;28.10;66.00
11848;DHT22;5983;49.966;8.052;2023-07-13T12:34:52;28.00;65.60
11848;DHT22;5983;49.966;8.052;2023-07-13T12:37:22;28.00;65.60
11848;DHT22;5983;49.966;8.052;2023-07-13T12:39:51;27.90;66.20
11848;DHT22;5983;49.966;8.052;2023-07-13T12:42:20;27.90;67.70
11848;DHT22;5983;49.966;8.052;2023-07-13T12:44:49;27.70;66.80
11848;DHT22;5983;49.966;8.052;2023-07-13T12:47:16;27.50;66.50
11848;DHT22;5983;49.966;8.052;2023-07-13T12:49:47;27.50;66.30
11848;DHT22;5983;49.966;8.052;2023-07-13T12:52:17;27.40;66.40
11848;DHT22;5983;49.966;8.052;2023-07-13T12:54:55;27.40;66.90
11848;DHT22;5983;49.966;8.052;2023-07-13T12:57:23;27.50;67.30
11848;DHT22;5983;49.966;8.052;2023-07-13T12:59:51;27.50;67.20
11848;DHT22;5983;49.966;8.052;2023-07-13T13:02:22;27.50;67.90
11848;DHT22;5983;49.966;8.052;2023-07-13T13:04:54;27.50;67.90
11848;DHT22;5983;49.966;8.052;2023-07-13T13:07:21;27.40;67.20
11848;DHT22;5983;49.966;8.052;2023-07-13T13:09:48;27.30;67.50
11848;DHT22;5983;49.966;8.052;2023-07-13T13:12:16;27.10;67.30
11848;DHT22;5983;49.966;8.052;2023-07-13T13:14:43;27.00;67.60
11848;DHT22;5983;49.966;8.052;2023-07-13T13:17:16;26.90;68.20
11848;DHT22;5983;49.966;8.052;2023-07-13T13:19:45;26.90;67.80
11848;DHT22;5983;49.966;8.052;2023-07-13T13:22:13;26.90;67.80
11848;DHT22;5983;49.966;8.052;2023-07-13T13:24:40;26.90;65.00
11848;DHT22;5983;49.966;8.052;2023-07-13T13:27:08;26.90;66.50
11848;DHT22;5983;49.966;8.052;2023-07-13T13:29:44;27.00;67.90
11848;DHT22;5983;49.966;8.052;2023-07-13T13:32:11;27.10;68.40
11848;DHT22;5983;49.966;8.052;2023-07-13T13:34:39;27.30;68.50
11848;DHT22;5983;49.966;8.052;2023-07-13T13:37:09;27.30;66.00
11848;DHT22;5983;49.966;8.052;2023-07-13T13:39:44;27.50;66.40
11848;DHT22;5983;49.966;8.052;2023-07-13T13:42:12;27.70;66.00
11848;DHT22;5983;49.966;8.052;2023-07-13T13:44:39;28.00;64.80
11848;DHT22;5983;49.966;8.052;2023-07-13T13:47:10;28.10;65.40
11848;DHT22;5983;49.966;8.052;2023-07-13T13:49:49;28.20;65.90
11848;DHT22;5983;49.966;8.052;2023-07-13T13:52:16;28.00;65.70
11848;DHT22;5983;49.966;8.052;2023-07-13T13:54:43;27.80;67.50
11848;DHT22;5983;49.966;8.052;2023-07-13T13:57:10;27.60;66.50
11848;DHT22;5983;49.966;8.052;2023-07-13T13:59:38;27.40;66.80
11848;DHT22;5983;49.966;8.052;2023-07-13T14:02:15;27.20;68.40
11848;DHT22;5983;49.966;8.052;2023-07-13T14:04:50;27.00;68.80
11848;DHT22;5983;49.966;8.052;2023-07-13T14:07:20;26.80;69.40
11848;DHT22;5983;49.966;8.052;2023-07-13T14:09:47;26.60;69.40
11848;DHT22;5983;49.966;8.052;2023-07-13T14:12:14;26.60;70.30
11848;DHT22;5983;49.966;8.052;2023-07-13T14:14:41;26.50;70.40
11848;DHT22;5983;49.966;8.052;2023-07-13T14:17:12;26.40;70.80
11848;DHT22;5983;49.966;8.052;2023-07-13T14:19:47;26.40;70.50
11848;DHT22;5983;49.966;8.052;2023-07-13T14:22:16;26.40;70.50
11848;DHT22;5983;49.966;8.052;2023-07-13T14:24:43;26.40;71.00
11848;DHT22;5983;49.966;8.052;2023-07-13T14:27:10;26.30;71.30
11848;DHT22;5983;49.966;8.052;2023-07-13T14:29:37;26.30;71.10
11848;DHT22;5983;49.966;8.052;2023-07-13T14:32:04;26.30;71.20
11848;DHT22;5983;49.966;8.052;2023-07-13T14:34:33;26.30;70.90
11848;DHT22;5983;49.966;8.052;2023-07-13T14:37:00;26.30;71.50
11848;DHT22;5983;49.966;8.052;2023-07-13T14:39:27;26.30;72.00
11848;DHT22;5983;49.966;8.052;2023-07-13T14:41:54;26.40;72.80
11848;DHT22;5983;49.966;8.052;2023-07-13T14:44:25;26.50;72.80
11848;DHT22;5983;49.966;8.052;2023-07-13T14:46:55;26.50;71.90
11848;DHT22;5983;49.966;8.052;2023-07-13T14:49:24;26.50;71.90
11848;DHT22;5983;49.966;8.052;2023-07-13T14:51:55;26.40;70.70
11848;DHT22;5983;49.966;8.052;2023-07-13T14:54:23;26.40;70.50
11848;DHT22;5983;49.966;8.052;2023-07-13T14:56:51;26.50;70.00
11848;DHT22;5983;49.966;8.052;2023-07-13T14:59:18;26.50;70.10
11848;DHT22;5983;49.966;8.052;2023-07-13T15:01:45;26.50;70.10
11848;DHT22;5983;49.966;8.052;2023-07-13T15:04:13;26.50;70.10
11848;DHT22;5983;49.966;8.052;2023-07-13T15:06:57;26.50;70.40
11848;DHT22;5983;49.966;8.052;2023-07-13T15:09:27;26.60;70.70
11848;DHT22;5983;49.966;8.052;2023-07-13T15:11:54;26.80;70.70
11848;DHT22;5983;49.966;8.052;2023-07-13T15:14:21;26.90;69.10
11848;DHT22;5983;49.966;8.052;2023-07-13T15:16:49;27.10;68.90
11848;DHT22;5983;49.966;8.052;2023-07-13T15:19:17;27.20;69.70
11848;DHT22;5983;49.966;8.052;2023-07-13T15:21:45;27.20;67.60
11848;DHT22;5983;49.966;8.052;2023-07-13T15:24:14;27.20;67.60
11848;DHT22;5983;49.966;8.052;2023-07-13T15:26:41;27.20;69.70
11848;DHT22;5983;49.966;8.052;2023-07-13T15:29:10;27.10;68.10
11848;DHT22;5983;49.966;8.052;2023-07-13T15:31:37;27.10;68.40
11848;DHT22;5983;49.966;8.052;2023-07-13T15:34:09;27.00;68.80
11848;DHT22;5983;49.966;8.052;2023-07-13T15:36:38;26.90;69.70
11848;DHT22;5983;49.966;8.052;2023-07-13T15:39:05;26.90;70.20
11848;DHT22;5983;49.966;8.052;2023-07-13T15:41:34;26.70;70.00
11848;DHT22;5983;49.966;8.052;2023-07-13T15:44:22;26.60;70.00
11848;DHT22;5983;49.966;8.052;2023-07-13T15:46:52;26.60;70.60
11848;DHT22;5983;49.966;8.052;2023-07-13T15:49:19;26.40;71.00
11848;DHT22;5983;49.966;8.052;2023-07-13T15:51:46;26.30;70.30
11848;DHT22;5983;49.966;8.052;2023-07-13T15:54:14;26.30;67.70
11848;DHT22;5983;49.966;8.052;2023-07-13T15:56:45;26.20;67.30
11848;DHT22;5983;49.966;8.052;2023-07-13T15:59:17;26.20;67.60
11848;DHT22;5983;49.966;8.052;2023-07-13T16:01:44;26.20;68.60
11848;DHT22;5983;49.966;8.052;2023-07-13T16:04:11;26.20;69.40
11848;DHT22;5983;49.966;8.052;2023-07-13T16:06:39;26.10;69.70